sensor_id;sensor_type;location;lat;lon;timestamp;P1;durP1;ratioP1;P2;durP2;ratioP2
23594;SDS011;11975;47.674;9.472;2022-12-07T00:00:53;33.65;;;31.45;;
23594;SDS011;11975;47.674;9.472;2022-12-07T00:03:20;33.47;;;31.25;;
23594;SDS011;11975;47.674;9.472;2022-12-07T00:05:46;32.08;;;30.02;;
23594;SDS011;11975;47.674;9.472;2022-12-07T00:08:12;31.80;;;29.67;;
23594;SDS011;11975;47.674;9.472;2022-12-07T00:10:38;34.20;;;31.83;;
23594;SDS011;11975;47.674;9.472;2022-12-07T00:13:04;32.00;;;29.92;;
23594;SDS011;11975;47.674;9.472;2022-12-07T00:15:29;32.60;;;30.50;;
23594;SDS011;11975;47.674;9.472;2022-12-07T00:17:55;32.58;;;30.10;;
23594;SDS011;11975;47.674;9.472;2022-12-07T00:20:21;33.63;;;31.20;;
23594;SDS011;11975;47.674;9.472;2022-12-07T00:22:47;32.40;;;30.38;;
23594;SDS011;11975;47.674;9.472;2022-12-07T00:25:13;33.22;;;31.05;;
23594;SDS011;11975;47.674;9.472;2022-12-07T00:27:39;32.90;;;30.60;;
23594;SDS011;11975;47.674;9.472;2022-12-07T00:30:05;31.75;;;29.73;;
23594;SDS011;11975;47.674;9.472;2022-12-07T00:32:32;34.40;;;32.13;;
23594;SDS011;11975;47.674;9.472;2022-12-07T00:34:58;34.58;;;31.95;;
23594;SDS011;11975;47.674;9.472;2022-12-07T00:37:23;31.88;;;29.77;;
23594;SDS011;11975;47.674;9.472;2022-12-07T00:39:49;32.35;;;30.35;;
23594;SDS011;11975;47.674;9.472;2022-12-07T00:42:15;32.17;;;30.23;;
23594;SDS011;11975;47.674;9.472;2022-12-07T00:44:41;32.22;;;30.23;;
23594;SDS011;11975;47.674;9.472;2022-12-07T00:47:07;33.38;;;31.17;;
23594;SDS011;11975;47.674;9.472;2022-12-07T00:49:33;30.95;;;29.05;;
23594;SDS011;11975;47.674;9.472;2022-12-07T00:51:59;33.55;;;31.40;;
23594;SDS011;11975;47.674;9.472;2022-12-07T00:54:25;34.03;;;31.92;;
23594;SDS011;11975;47.674;9.472;2022-12-07T00:56:51;31.38;;;29.38;;
23594;SDS011;11975;47.674;9.472;2022-12-07T00:59:17;33.88;;;31.70;;
23594;SDS011;11975;47.674;9.472;2022-12-07T01:01:43;31.77;;;29.67;;
23594;SDS011;11975;47.674;9.472;2022-12-07T01:04:09;32.55;;;30.45;;
23594;SDS011;11975;47.674;9.472;2022-12-07T01:06:34;30.75;;;28.85;;
23594;SDS011;11975;47.674;9.472;2022-12-07T01:09:00;32.35;;;30.25;;
23594;SDS011;11975;47.674;9.472;2022-12-07T01:11:27;32.15;;;29.92;;
23594;SDS011;11975;47.674;9.472;2022-12-07T01:13:55;33.33;;;31.17;;
23594;SDS011;11975;47.674;9.472;2022-12-07T01:16:22;32.65;;;30.65;;
23594;SDS011;11975;47.674;9.472;2022-12-07T01:18:50;32.80;;;30.80;;
23594;SDS011;11975;47.674;9.472;2022-12-07T01:21:21;33.80;;;31.65;;
23594;SDS011;11975;47.674;9.472;2022-12-07T01:23:51;31.58;;;29.67;;
23594;SDS011;11975;47.674;9.472;2022-12-07T01:26:19;32.40;;;30.33;;
23594;SDS011;11975;47.674;9.472;2022-12-07T01:28:47;33.35;;;31.15;;
23594;SDS011;11975;47.674;9.472;2022-12-07T01:31:13;31.73;;;29.77;;
23594;SDS011;11975;47.674;9.472;2022-12-07T01:33:44;32.33;;;30.23;;
23594;SDS011;11975;47.674;9.472;2022-12-07T01:36:33;31.50;;;29.55;;
23594;SDS011;11975;47.674;9.472;2022-12-07T01:38:59;31.20;;;29.30;;
23594;SDS011;11975;47.674;9.472;2022-12-07T01:41:27;33.05;;;30.85;;
23594;SDS011;11975;47.674;9.472;2022-12-07T01:46:35;32.03;;;29.92;;
23594;SDS011;11975;47.674;9.472;2022-12-07T01:49:02;32.08;;;30.08;;
23594;SDS011;11975;47.674;9.472;2022-12-07T01:51:29;32.92;;;30.67;;
23594;SDS011;11975;47.674;9.472;2022-12-07T01:53:55;33.22;;;30.35;;
23594;SDS011;11975;47.674;9.472;2022-12-07T01:56:23;32.83;;;30.67;;
23594;SDS011;11975;47.674;9.472;2022-12-07T01:58:50;31.88;;;29.55;;
23594;SDS011;11975;47.674;9.472;2022-12-07T02:01:17;32.20;;;30.27;;
23594;SDS011;11975;47.674;9.472;2022-12-07T02:03:43;31.38;;;29.48;;
23594;SDS011;11975;47.674;9.472;2022-12-07T02:06:10;31.77;;;29.83;;
23594;SDS011;11975;47.674;9.472;2022-12-07T02:08:38;33.78;;;31.42;;
23594;SDS011;11975;47.674;9.472;2022-12-07T02:11:04;32.40;;;29.90;;
23594;SDS011;11975;47.674;9.472;2022-12-07T02:13:32;31.33;;;29.00;;
23594;SDS011;11975;47.674;9.472;2022-12-07T02:16:02;34.38;;;32.05;;
23594;SDS011;11975;47.674;9.472;2022-12-07T02:18:57;34.33;;;31.88;;
23594;SDS011;11975;47.674;9.472;2022-12-07T02:21:54;31.48;;;29.48;;
23594;SDS011;11975;47.674;9.472;2022-12-07T02:30:07;32.00;;;29.95;;
23594;SDS011;11975;47.674;9.472;2022-12-07T02:35:20;32.53;;;30.52;;
23594;SDS011;11975;47.674;9.472;2022-12-07T02:40:57;33.15;;;31.00;;
23594;SDS011;11975;47.674;9.472;2022-12-07T02:43:34;32.90;;;30.80;;
23594;SDS011;11975;47.674;9.472;2022-12-07T02:46:05;32.08;;;30.13;;
23594;SDS011;11975;47.674;9.472;2022-12-07T02:48:42;30.83;;;28.98;;
23594;SDS011;11975;47.674;9.472;2022-12-07T02:51:08;33.75;;;31.38;;
23594;SDS011;11975;47.674;9.472;2022-12-07T02:53:35;31.20;;;29.30;;
23594;SDS011;11975;47.674;9.472;2022-12-07T02:59:02;32.88;;;30.77;;
23594;SDS011;11975;47.674;9.472;2022-12-07T03:04:13;31.65;;;29.67;;
23594;SDS011;11975;47.674;9.472;2022-12-07T03:06:53;30.50;;;28.60;;
23594;SDS011;11975;47.674;9.472;2022-12-07T03:09:31;32.55;;;30.45;;
23594;SDS011;11975;47.674;9.472;2022-12-07T03:12:05;32.00;;;29.45;;
23594;SDS011;11975;47.674;9.472;2022-12-07T03:14:40;32.50;;;30.35;;
23594;SDS011;11975;47.674;9.472;2022-12-07T03:17:10;30.65;;;28.75;;
23594;SDS011;11975;47.674;9.472;2022-12-07T03:19:39;31.73;;;29.73;;
23594;SDS011;11975;47.674;9.472;2022-12-07T03:24:43;31.75;;;29.85;;
23594;SDS011;11975;47.674;9.472;2022-12-07T03:27:13;31.95;;;29.95;;
23594;SDS011;11975;47.674;9.472;2022-12-07T03:29:44;30.50;;;28.63;;
23594;SDS011;11975;47.674;9.472;2022-12-07T03:32:23;31.85;;;29.67;;
23594;SDS011;11975;47.674;9.472;2022-12-07T03:35:05;31.15;;;29.25;;
23594;SDS011;11975;47.674;9.472;2022-12-07T03:43:10;32.80;;;30.80;;
23594;SDS011;11975;47.674;9.472;2022-12-07T03:45:40;30.67;;;28.77;;
23594;SDS011;11975;47.674;9.472;2022-12-07T03:53:29;31.80;;;29.85;;
23594;SDS011;11975;47.674;9.472;2022-12-07T03:56:00;32.55;;;30.60;;
23594;SDS011;11975;47.674;9.472;2022-12-07T03:58:26;31.30;;;29.40;;
23594;SDS011;11975;47.674;9.472;2022-12-07T04:00:53;35.22;;;32.67;;
23594;SDS011;11975;47.674;9.472;2022-12-07T04:03:19;32.83;;;30.75;;
23594;SDS011;11975;47.674;9.472;2022-12-07T04:05:45;33.72;;;31.50;;
23594;SDS011;11975;47.674;9.472;2022-12-07T04:08:11;34.97;;;31.67;;
23594;SDS011;11975;47.674;9.472;2022-12-07T04:10:37;30.77;;;28.88;;
23594;SDS011;11975;47.674;9.472;2022-12-07T04:13:03;32.28;;;30.27;;
23594;SDS011;11975;47.674;9.472;2022-12-07T04:15:29;33.97;;;31.70;;
23594;SDS011;11975;47.674;9.472;2022-12-07T04:17:55;31.50;;;29.60;;
23594;SDS011;11975;47.674;9.472;2022-12-07T04:20:21;33.45;;;30.92;;
23594;SDS011;11975;47.674;9.472;2022-12-07T04:22:47;34.10;;;31.77;;
23594;SDS011;11975;47.674;9.472;2022-12-07T04:25:13;32.88;;;30.88;;
23594;SDS011;11975;47.674;9.472;2022-12-07T04:27:39;32.90;;;30.80;;
23594;SDS011;11975;47.674;9.472;2022-12-07T04:30:05;31.75;;;29.73;;
23594;SDS011;11975;47.674;9.472;2022-12-07T04:32:31;33.90;;;31.50;;
23594;SDS011;11975;47.674;9.472;2022-12-07T04:34:57;32.33;;;30.33;;
23594;SDS011;11975;47.674;9.472;2022-12-07T04:37:23;32.83;;;30.83;;
23594;SDS011;11975;47.674;9.472;2022-12-07T04:39:49;31.08;;;29.17;;
23594;SDS011;11975;47.674;9.472;2022-12-07T04:42:15;32.20;;;30.20;;
23594;SDS011;11975;47.674;9.472;2022-12-07T04:44:41;33.33;;;31.23;;
23594;SDS011;11975;47.674;9.472;2022-12-07T04:47:07;32.03;;;29.98;;
23594;SDS011;11975;47.674;9.472;2022-12-07T04:49:33;31.38;;;29.48;;
23594;SDS011;11975;47.674;9.472;2022-12-07T04:51:59;31.90;;;29.90;;
23594;SDS011;11975;47.674;9.472;2022-12-07T04:54:25;32.75;;;30.48;;
23594;SDS011;11975;47.674;9.472;2022-12-07T04:56:51;32.65;;;30.45;;
23594;SDS011;11975;47.674;9.472;2022-12-07T04:59:17;32.70;;;30.60;;
23594;SDS011;11975;47.674;9.472;2022-12-07T05:01:43;36.03;;;33.58;;
23594;SDS011;11975;47.674;9.472;2022-12-07T05:04:09;30.98;;;29.08;;
23594;SDS011;11975;47.674;9.472;2022-12-07T05:06:35;33.22;;;31.05;;
23594;SDS011;11975;47.674;9.472;2022-12-07T05:09:02;34.03;;;31.30;;
23594;SDS011;11975;47.674;9.472;2022-12-07T05:11:28;32.45;;;30.35;;
23594;SDS011;11975;47.674;9.472;2022-12-07T05:16:36;31.70;;;29.77;;
23594;SDS011;11975;47.674;9.472;2022-12-07T05:19:03;34.22;;;32.08;;
23594;SDS011;11975;47.674;9.472;2022-12-07T05:21:29;34.03;;;31.02;;
23594;SDS011;11975;47.674;9.472;2022-12-07T05:23:55;32.03;;;29.90;;
23594;SDS011;11975;47.674;9.472;2022-12-07T05:26:21;32.10;;;30.10;;
23594;SDS011;11975;47.674;9.472;2022-12-07T05:28:54;33.50;;;31.23;;
23594;SDS011;11975;47.674;9.472;2022-12-07T05:31:21;31.88;;;29.90;;
23594;SDS011;11975;47.674;9.472;2022-12-07T05:33:47;32.83;;;30.73;;
23594;SDS011;11975;47.674;9.472;2022-12-07T05:36:13;32.40;;;30.40;;
23594;SDS011;11975;47.674;9.472;2022-12-07T05:38:39;33.03;;;30.75;;
23594;SDS011;11975;47.674;9.472;2022-12-07T05:41:06;34.80;;;31.85;;
23594;SDS011;11975;47.674;9.472;2022-12-07T05:43:32;31.73;;;29.83;;
23594;SDS011;11975;47.674;9.472;2022-12-07T05:45:59;31.67;;;29.67;;
23594;SDS011;11975;47.674;9.472;2022-12-07T05:48:25;32.80;;;30.60;;
23594;SDS011;11975;47.674;9.472;2022-12-07T05:50:51;32.13;;;30.08;;
23594;SDS011;11975;47.674;9.472;2022-12-07T05:53:17;31.80;;;29.87;;
23594;SDS011;11975;47.674;9.472;2022-12-07T05:55:43;32.95;;;30.75;;
23594;SDS011;11975;47.674;9.472;2022-12-07T05:58:09;31.20;;;29.17;;
23594;SDS011;11975;47.674;9.472;2022-12-07T06:00:55;34.08;;;31.85;;
23594;SDS011;11975;47.674;9.472;2022-12-07T06:03:21;37.90;;;35.30;;
23594;SDS011;11975;47.674;9.472;2022-12-07T06:05:47;31.85;;;29.85;;
23594;SDS011;11975;47.674;9.472;2022-12-07T06:08:13;32.25;;;30.23;;
23594;SDS011;11975;47.674;9.472;2022-12-07T06:10:40;33.20;;;30.85;;
23594;SDS011;11975;47.674;9.472;2022-12-07T06:13:07;33.60;;;31.38;;
23594;SDS011;11975;47.674;9.472;2022-12-07T06:15:37;33.72;;;31.63;;
23594;SDS011;11975;47.674;9.472;2022-12-07T06:18:03;32.47;;;30.35;;
23594;SDS011;11975;47.674;9.472;2022-12-07T06:20:29;31.95;;;29.73;;
23594;SDS011;11975;47.674;9.472;2022-12-07T06:22:55;34.83;;;32.35;;
23594;SDS011;11975;47.674;9.472;2022-12-07T06:25:21;32.55;;;29.92;;
23594;SDS011;11975;47.674;9.472;2022-12-07T06:27:47;31.42;;;29.50;;
23594;SDS011;11975;47.674;9.472;2022-12-07T06:30:13;33.08;;;30.95;;
23594;SDS011;11975;47.674;9.472;2022-12-07T06:32:39;30.52;;;28.58;;
23594;SDS011;11975;47.674;9.472;2022-12-07T06:35:05;31.73;;;29.83;;
23594;SDS011;11975;47.674;9.472;2022-12-07T06:37:31;31.48;;;29.58;;
23594;SDS011;11975;47.674;9.472;2022-12-07T06:39:57;31.48;;;29.45;;
23594;SDS011;11975;47.674;9.472;2022-12-07T06:42:23;33.30;;;31.10;;
23594;SDS011;11975;47.674;9.472;2022-12-07T06:44:49;31.75;;;29.65;;
23594;SDS011;11975;47.674;9.472;2022-12-07T06:47:14;32.30;;;30.30;;
23594;SDS011;11975;47.674;9.472;2022-12-07T06:49:40;31.40;;;29.40;;
23594;SDS011;11975;47.674;9.472;2022-12-07T06:52:06;31.38;;;29.48;;
23594;SDS011;11975;47.674;9.472;2022-12-07T06:54:32;30.65;;;28.77;;
23594;SDS011;11975;47.674;9.472;2022-12-07T06:56:58;32.30;;;30.10;;
23594;SDS011;11975;47.674;9.472;2022-12-07T06:59:24;31.65;;;29.65;;
23594;SDS011;11975;47.674;9.472;2022-12-07T07:01:50;31.70;;;29.48;;
23594;SDS011;11975;47.674;9.472;2022-12-07T07:04:16;31.92;;;29.73;;
23594;SDS011;11975;47.674;9.472;2022-12-07T07:06:42;31.83;;;29.60;;
23594;SDS011;11975;47.674;9.472;2022-12-07T07:09:08;32.38;;;30.30;;
23594;SDS011;11975;47.674;9.472;2022-12-07T07:11:34;31.90;;;29.90;;
23594;SDS011;11975;47.674;9.472;2022-12-07T07:14:00;31.67;;;29.77;;
23594;SDS011;11975;47.674;9.472;2022-12-07T07:16:28;31.30;;;29.40;;
23594;SDS011;11975;47.674;9.472;2022-12-07T07:18:56;31.98;;;29.98;;
23594;SDS011;11975;47.674;9.472;2022-12-07T07:21:22;32.08;;;29.88;;
23594;SDS011;11975;47.674;9.472;2022-12-07T07:23:47;32.17;;;30.15;;
23594;SDS011;11975;47.674;9.472;2022-12-07T07:26:14;30.15;;;28.35;;
23594;SDS011;11975;47.674;9.472;2022-12-07T07:28:40;32.55;;;30.42;;
23594;SDS011;11975;47.674;9.472;2022-12-07T07:31:06;30.00;;;28.10;;
23594;SDS011;11975;47.674;9.472;2022-12-07T07:33:32;31.38;;;29.38;;
23594;SDS011;11975;47.674;9.472;2022-12-07T07:35:58;30.23;;;28.33;;
23594;SDS011;11975;47.674;9.472;2022-12-07T07:38:24;31.65;;;29.67;;
23594;SDS011;11975;47.674;9.472;2022-12-07T07:40:50;32.90;;;30.75;;
23594;SDS011;11975;47.674;9.472;2022-12-07T07:43:15;30.85;;;28.92;;
23594;SDS011;11975;47.674;9.472;2022-12-07T07:45:41;30.20;;;28.40;;
23594;SDS011;11975;47.674;9.472;2022-12-07T07:48:07;30.20;;;28.35;;
23594;SDS011;11975;47.674;9.472;2022-12-07T07:50:33;31.38;;;29.42;;
23594;SDS011;11975;47.674;9.472;2022-12-07T07:52:59;33.05;;;30.40;;
23594;SDS011;11975;47.674;9.472;2022-12-07T07:55:25;30.45;;;28.65;;
23594;SDS011;11975;47.674;9.472;2022-12-07T07:57:51;32.00;;;29.98;;
23594;SDS011;11975;47.674;9.472;2022-12-07T08:00:17;31.00;;;29.10;;
23594;SDS011;11975;47.674;9.472;2022-12-07T08:02:43;31.73;;;29.58;;
23594;SDS011;11975;47.674;9.472;2022-12-07T08:05:10;31.10;;;28.75;;
23594;SDS011;11975;47.674;9.472;2022-12-07T08:10:03;31.92;;;29.67;;
23594;SDS011;11975;47.674;9.472;2022-12-07T08:12:29;30.90;;;29.00;;
23594;SDS011;11975;47.674;9.472;2022-12-07T08:14:55;29.92;;;28.05;;
23594;SDS011;11975;47.674;9.472;2022-12-07T08:17:21;29.90;;;28.08;;
23594;SDS011;11975;47.674;9.472;2022-12-07T08:19:47;30.25;;;28.42;;
23594;SDS011;11975;47.674;9.472;2022-12-07T08:22:13;30.77;;;28.88;;
23594;SDS011;11975;47.674;9.472;2022-12-07T08:24:39;30.88;;;28.58;;
23594;SDS011;11975;47.674;9.472;2022-12-07T08:27:05;30.27;;;28.48;;
23594;SDS011;11975;47.674;9.472;2022-12-07T08:29:31;32.88;;;30.73;;
23594;SDS011;11975;47.674;9.472;2022-12-07T08:31:57;30.60;;;28.73;;
23594;SDS011;11975;47.674;9.472;2022-12-07T08:34:22;29.75;;;27.98;;
23594;SDS011;11975;47.674;9.472;2022-12-07T08:36:48;30.88;;;28.88;;
23594;SDS011;11975;47.674;9.472;2022-12-07T08:39:14;30.30;;;28.48;;
23594;SDS011;11975;47.674;9.472;2022-12-07T08:41:40;31.40;;;29.00;;
23594;SDS011;11975;47.674;9.472;2022-12-07T08:44:06;30.92;;;29.02;;
23594;SDS011;11975;47.674;9.472;2022-12-07T08:46:39;31.20;;;29.08;;
23594;SDS011;11975;47.674;9.472;2022-12-07T08:49:09;30.15;;;28.27;;
23594;SDS011;11975;47.674;9.472;2022-12-07T08:51:38;31.27;;;29.30;;
23594;SDS011;11975;47.674;9.472;2022-12-07T08:54:06;30.52;;;28.65;;
23594;SDS011;11975;47.674;9.472;2022-12-07T08:56:34;31.35;;;29.25;;
23594;SDS011;11975;47.674;9.472;2022-12-07T08:59:00;31.80;;;29.83;;
23594;SDS011;11975;47.674;9.472;2022-12-07T09:01:26;30.15;;;28.25;;
23594;SDS011;11975;47.674;9.472;2022-12-07T09:03:52;31.55;;;29.45;;
23594;SDS011;11975;47.674;9.472;2022-12-07T09:06:18;30.80;;;28.80;;
23594;SDS011;11975;47.674;9.472;2022-12-07T09:08:46;31.00;;;29.10;;
23594;SDS011;11975;47.674;9.472;2022-12-07T09:11:13;29.80;;;27.98;;
23594;SDS011;11975;47.674;9.472;2022-12-07T09:13:39;31.27;;;29.38;;
23594;SDS011;11975;47.674;9.472;2022-12-07T09:16:05;31.55;;;29.55;;
23594;SDS011;11975;47.674;9.472;2022-12-07T09:18:31;31.58;;;29.45;;
23594;SDS011;11975;47.674;9.472;2022-12-07T09:20:57;29.58;;;27.70;;
23594;SDS011;11975;47.674;9.472;2022-12-07T09:23:23;31.65;;;29.00;;
23594;SDS011;11975;47.674;9.472;2022-12-07T09:25:49;29.63;;;27.80;;
23594;SDS011;11975;47.674;9.472;2022-12-07T09:28:15;33.75;;;31.35;;
23594;SDS011;11975;47.674;9.472;2022-12-07T09:30:48;31.27;;;29.38;;
23594;SDS011;11975;47.674;9.472;2022-12-07T09:33:14;30.65;;;28.75;;
23594;SDS011;11975;47.674;9.472;2022-12-07T09:35:44;29.23;;;27.52;;
23594;SDS011;11975;47.674;9.472;2022-12-07T09:38:13;30.20;;;28.30;;
23594;SDS011;11975;47.674;9.472;2022-12-07T09:40:39;30.55;;;28.65;;
23594;SDS011;11975;47.674;9.472;2022-12-07T09:43:10;29.33;;;27.53;;
23594;SDS011;11975;47.674;9.472;2022-12-07T09:45:48;30.67;;;28.30;;
23594;SDS011;11975;47.674;9.472;2022-12-07T09:48:18;30.42;;;28.55;;
23594;SDS011;11975;47.674;9.472;2022-12-07T09:50:46;29.98;;;28.15;;
23594;SDS011;11975;47.674;9.472;2022-12-07T09:53:15;30.02;;;28.13;;
23594;SDS011;11975;47.674;9.472;2022-12-07T09:55:53;29.95;;;28.05;;
23594;SDS011;11975;47.674;9.472;2022-12-07T09:58:26;29.83;;;28.03;;
23594;SDS011;11975;47.674;9.472;2022-12-07T10:00:55;30.05;;;28.10;;
23594;SDS011;11975;47.674;9.472;2022-12-07T10:03:23;28.50;;;26.80;;
23594;SDS011;11975;47.674;9.472;2022-12-07T10:05:50;29.75;;;27.73;;
23594;SDS011;11975;47.674;9.472;2022-12-07T10:08:17;29.65;;;27.85;;
23594;SDS011;11975;47.674;9.472;2022-12-07T10:10:43;30.00;;;28.20;;
23594;SDS011;11975;47.674;9.472;2022-12-07T10:13:11;29.92;;;28.13;;
23594;SDS011;11975;47.674;9.472;2022-12-07T10:15:48;28.13;;;26.52;;
23594;SDS011;11975;47.674;9.472;2022-12-07T10:20:59;30.33;;;28.30;;
23594;SDS011;11975;47.674;9.472;2022-12-07T10:23:26;33.40;;;31.20;;
23594;SDS011;11975;47.674;9.472;2022-12-07T10:25:52;29.52;;;27.63;;
23594;SDS011;11975;47.674;9.472;2022-12-07T10:28:20;33.63;;;31.42;;
23594;SDS011;11975;47.674;9.472;2022-12-07T10:33:38;30.45;;;28.35;;
23594;SDS011;11975;47.674;9.472;2022-12-07T10:38:49;29.70;;;27.75;;
23594;SDS011;11975;47.674;9.472;2022-12-07T10:41:54;27.48;;;25.88;;
23594;SDS011;11975;47.674;9.472;2022-12-07T10:44:25;29.50;;;27.80;;
23594;SDS011;11975;47.674;9.472;2022-12-07T10:52:39;28.77;;;27.08;;
23594;SDS011;11975;47.674;9.472;2022-12-07T10:55:21;28.75;;;27.05;;
23594;SDS011;11975;47.674;9.472;2022-12-07T11:00:24;29.00;;;26.88;;
23594;SDS011;11975;47.674;9.472;2022-12-07T11:05:44;28.27;;;26.63;;
23594;SDS011;11975;47.674;9.472;2022-12-07T11:13:52;28.38;;;26.77;;
23594;SDS011;11975;47.674;9.472;2022-12-07T11:16:30;30.75;;;27.88;;
23594;SDS011;11975;47.674;9.472;2022-12-07T11:21:48;28.95;;;27.23;;
23594;SDS011;11975;47.674;9.472;2022-12-07T11:32:23;28.55;;;26.90;;
23594;SDS011;11975;47.674;9.472;2022-12-07T11:35:42;29.58;;;27.83;;
23594;SDS011;11975;47.674;9.472;2022-12-07T11:38:00;28.15;;;26.52;;
23594;SDS011;11975;47.674;9.472;2022-12-07T11:40:43;29.70;;;27.95;;
23594;SDS011;11975;47.674;9.472;2022-12-07T11:46:04;30.08;;;28.27;;
23594;SDS011;11975;47.674;9.472;2022-12-07T11:48:47;29.50;;;27.77;;
23594;SDS011;11975;47.674;9.472;2022-12-07T11:51:16;28.63;;;27.00;;
23594;SDS011;11975;47.674;9.472;2022-12-07T11:53:45;29.00;;;27.33;;
23594;SDS011;11975;47.674;9.472;2022-12-07T11:56:16;28.95;;;27.30;;
23594;SDS011;11975;47.674;9.472;2022-12-07T11:58:51;31.13;;;29.23;;
23594;SDS011;11975;47.674;9.472;2022-12-07T12:04:06;29.40;;;27.60;;
23594;SDS011;11975;47.674;9.472;2022-12-07T12:06:36;29.52;;;27.63;;
23594;SDS011;11975;47.674;9.472;2022-12-07T12:11:50;28.80;;;27.15;;
23594;SDS011;11975;47.674;9.472;2022-12-07T12:22:37;29.52;;;27.73;;
23594;SDS011;11975;47.674;9.472;2022-12-07T12:25:07;29.02;;;27.27;;
23594;SDS011;11975;47.674;9.472;2022-12-07T12:28:00;29.58;;;27.88;;
23594;SDS011;11975;47.674;9.472;2022-12-07T12:30:36;29.33;;;27.48;;
23594;SDS011;11975;47.674;9.472;2022-12-07T12:33:20;29.40;;;27.70;;
23594;SDS011;11975;47.674;9.472;2022-12-07T12:44:02;29.27;;;27.58;;
23594;SDS011;11975;47.674;9.472;2022-12-07T12:48:55;30.13;;;28.33;;
23594;SDS011;11975;47.674;9.472;2022-12-07T12:51:39;29.27;;;27.60;;
23594;SDS011;11975;47.674;9.472;2022-12-07T12:54:12;31.27;;;29.38;;
23594;SDS011;11975;47.674;9.472;2022-12-07T12:56:42;31.08;;;29.15;;
23594;SDS011;11975;47.674;9.472;2022-12-07T13:01:56;29.15;;;27.25;;
23594;SDS011;11975;47.674;9.472;2022-12-07T13:12:57;30.52;;;28.70;;
23594;SDS011;11975;47.674;9.472;2022-12-07T13:28:45;30.33;;;28.55;;
23594;SDS011;11975;47.674;9.472;2022-12-07T13:31:18;30.08;;;28.25;;
23594;SDS011;11975;47.674;9.472;2022-12-07T13:33:46;29.05;;;27.35;;
23594;SDS011;11975;47.674;9.472;2022-12-07T13:38:50;29.40;;;27.67;;
23594;SDS011;11975;47.674;9.472;2022-12-07T13:41:18;30.15;;;28.35;;
23594;SDS011;11975;47.674;9.472;2022-12-07T13:46:14;29.45;;;27.75;;
23594;SDS011;11975;47.674;9.472;2022-12-07T13:48:44;30.48;;;28.67;;
23594;SDS011;11975;47.674;9.472;2022-12-07T13:51:19;30.60;;;28.83;;
23594;SDS011;11975;47.674;9.472;2022-12-07T13:53:59;31.95;;;30.05;;
23594;SDS011;11975;47.674;9.472;2022-12-07T13:56:27;31.27;;;29.25;;
23594;SDS011;11975;47.674;9.472;2022-12-07T13:58:57;29.55;;;27.85;;
23594;SDS011;11975;47.674;9.472;2022-12-07T14:01:23;32.80;;;30.75;;
23594;SDS011;11975;47.674;9.472;2022-12-07T14:03:50;32.22;;;30.15;;
23594;SDS011;11975;47.674;9.472;2022-12-07T14:06:25;29.55;;;27.85;;
23594;SDS011;11975;47.674;9.472;2022-12-07T14:09:08;30.57;;;28.77;;
23594;SDS011;11975;47.674;9.472;2022-12-07T14:11:40;30.45;;;28.65;;
23594;SDS011;11975;47.674;9.472;2022-12-07T14:14:10;29.92;;;28.15;;
23594;SDS011;11975;47.674;9.472;2022-12-07T14:16:39;28.40;;;26.70;;
23594;SDS011;11975;47.674;9.472;2022-12-07T14:19:06;29.35;;;27.55;;
23594;SDS011;11975;47.674;9.472;2022-12-07T14:22:26;27.60;;;26.00;;
23594;SDS011;11975;47.674;9.472;2022-12-07T14:25:01;28.60;;;26.95;;
23594;SDS011;11975;47.674;9.472;2022-12-07T14:27:32;28.83;;;27.13;;
23594;SDS011;11975;47.674;9.472;2022-12-07T14:30:02;28.50;;;26.73;;
23594;SDS011;11975;47.674;9.472;2022-12-07T14:32:30;28.40;;;26.77;;
23594;SDS011;11975;47.674;9.472;2022-12-07T14:34:57;28.75;;;27.08;;
23594;SDS011;11975;47.674;9.472;2022-12-07T14:37:26;27.88;;;26.17;;
23594;SDS011;11975;47.674;9.472;2022-12-07T14:39:52;28.40;;;26.73;;
23594;SDS011;11975;47.674;9.472;2022-12-07T14:42:18;27.77;;;26.17;;
23594;SDS011;11975;47.674;9.472;2022-12-07T14:44:45;28.58;;;26.92;;
23594;SDS011;11975;47.674;9.472;2022-12-07T14:47:11;28.27;;;26.58;;
23594;SDS011;11975;47.674;9.472;2022-12-07T14:49:37;28.10;;;26.42;;
23594;SDS011;11975;47.674;9.472;2022-12-07T14:52:03;28.40;;;26.70;;
23594;SDS011;11975;47.674;9.472;2022-12-07T14:54:31;29.02;;;27.33;;
23594;SDS011;11975;47.674;9.472;2022-12-07T14:56:57;28.20;;;26.60;;
23594;SDS011;11975;47.674;9.472;2022-12-07T14:59:23;29.33;;;27.27;;
23594;SDS011;11975;47.674;9.472;2022-12-07T15:01:49;28.30;;;26.50;;
23594;SDS011;11975;47.674;9.472;2022-12-07T15:04:15;27.25;;;25.52;;
23594;SDS011;11975;47.674;9.472;2022-12-07T15:06:41;27.35;;;25.67;;
23594;SDS011;11975;47.674;9.472;2022-12-07T15:09:10;28.90;;;27.10;;
23594;SDS011;11975;47.674;9.472;2022-12-07T15:11:36;28.33;;;26.63;;
23594;SDS011;11975;47.674;9.472;2022-12-07T15:14:02;27.50;;;25.90;;
23594;SDS011;11975;47.674;9.472;2022-12-07T15:16:41;28.67;;;26.48;;
23594;SDS011;11975;47.674;9.472;2022-12-07T15:19:10;28.08;;;26.38;;
23594;SDS011;11975;47.674;9.472;2022-12-07T15:21:39;28.98;;;27.15;;
23594;SDS011;11975;47.674;9.472;2022-12-07T15:24:05;29.20;;;27.42;;
23594;SDS011;11975;47.674;9.472;2022-12-07T15:26:31;28.80;;;27.10;;
23594;SDS011;11975;47.674;9.472;2022-12-07T15:28:57;27.70;;;26.10;;
23594;SDS011;11975;47.674;9.472;2022-12-07T15:31:23;27.40;;;25.80;;
23594;SDS011;11975;47.674;9.472;2022-12-07T15:33:49;29.05;;;27.33;;
23594;SDS011;11975;47.674;9.472;2022-12-07T15:36:18;28.33;;;26.63;;
23594;SDS011;11975;47.674;9.472;2022-12-07T15:38:47;29.42;;;27.08;;
23594;SDS011;11975;47.674;9.472;2022-12-07T15:41:13;29.70;;;27.90;;
23594;SDS011;11975;47.674;9.472;2022-12-07T15:43:39;29.10;;;26.58;;
23594;SDS011;11975;47.674;9.472;2022-12-07T15:46:23;28.23;;;26.63;;
23594;SDS011;11975;47.674;9.472;2022-12-07T15:48:55;28.00;;;26.40;;
23594;SDS011;11975;47.674;9.472;2022-12-07T15:51:21;28.33;;;26.63;;
23594;SDS011;11975;47.674;9.472;2022-12-07T15:53:46;27.98;;;26.38;;
23594;SDS011;11975;47.674;9.472;2022-12-07T15:56:12;28.38;;;26.60;;
23594;SDS011;11975;47.674;9.472;2022-12-07T15:58:38;28.45;;;26.83;;
23594;SDS011;11975;47.674;9.472;2022-12-07T16:01:14;28.85;;;27.15;;
23594;SDS011;11975;47.674;9.472;2022-12-07T16:03:42;28.98;;;27.17;;
23594;SDS011;11975;47.674;9.472;2022-12-07T16:06:09;30.15;;;28.30;;
23594;SDS011;11975;47.674;9.472;2022-12-07T16:08:35;28.40;;;26.73;;
23594;SDS011;11975;47.674;9.472;2022-12-07T16:11:05;28.92;;;27.23;;
23594;SDS011;11975;47.674;9.472;2022-12-07T16:13:32;29.23;;;27.33;;
23594;SDS011;11975;47.674;9.472;2022-12-07T16:16:01;30.30;;;28.42;;
23594;SDS011;11975;47.674;9.472;2022-12-07T16:18:29;29.83;;;28.02;;
23594;SDS011;11975;47.674;9.472;2022-12-07T16:20:55;28.55;;;26.90;;
23594;SDS011;11975;47.674;9.472;2022-12-07T16:23:21;28.35;;;26.73;;
23594;SDS011;11975;47.674;9.472;2022-12-07T16:25:47;27.80;;;26.20;;
23594;SDS011;11975;47.674;9.472;2022-12-07T16:28:13;30.95;;;28.05;;
23594;SDS011;11975;47.674;9.472;2022-12-07T16:30:39;28.45;;;26.75;;
23594;SDS011;11975;47.674;9.472;2022-12-07T16:33:04;28.27;;;26.67;;
23594;SDS011;11975;47.674;9.472;2022-12-07T16:35:30;28.58;;;26.92;;
23594;SDS011;11975;47.674;9.472;2022-12-07T16:37:56;27.95;;;26.35;;
23594;SDS011;11975;47.674;9.472;2022-12-07T16:40:22;27.67;;;25.98;;